Time;durP1;ratioP1;P1;durP2;ratioP2;P2;SDS_P1;SDS_P2;PMS_P1;PMS_P2;Temp;Humidity;BMP_temperature;BMP_pressure;BME280_temperature;BME280_humidity;BME280_pressure;Samples;Min_cycle;Max_cycle;Signal;HPM_P1;HPM_P2
2022/01/23 00:01:46;;;;;;;;;48.25;41.00;;;;;;;;5046756;28;11567;-79
2022/01/23 00:04:13;;;;;;;;;37.75;37.25;;;;;;;;5058584;28;11593;-80
2022/01/23 00:06:41;;;;;;;;;45.25;42.75;;;;;;;;5047123;28;11555;-80
2022/01/23 00:09:10;;;;;;;;;52.25;39.00;;;;;;;;5056843;28;11590;-80
2022/01/23 00:11:43;;;;;;;;;45.50;39.50;;;;;;;;5048410;28;11574;-80
2022/01/23 00:19:55;;;;;;;;;53.00;44.00;;;;;;;;5003678;28;11703;-80
2022/01/23 00:22:27;;;;;;;;;41.25;37.75;;;;;;;;4984172;28;11639;-80
2022/01/23 00:30:28;;;;;;;;;29.00;28.25;;;;;;;;5044782;28;11423;-80
2022/01/23 00:32:57;;;;;;;;;28.75;25.00;;;;;;;;5029177;28;11571;-80
2022/01/23 00:35:24;;;;;;;;;22.75;20.75;;;;;;;;5044871;28;11704;-80
2022/01/23 00:37:52;;;;;;;;;28.00;25.00;;;;;;;;5043826;28;11614;-80
2022/01/23 00:40:21;;;;;;;;;46.00;38.50;;;;;;;;5044318;28;11573;-80
2022/01/23 00:42:49;;;;;;;;;28.00;25.25;;;;;;;;5049903;28;12326;-81
2022/01/23 00:48:04;;;;;;;;;28.75;24.25;;;;;;;;5048361;28;11613;-81
2022/01/23 00:50:33;;;;;;;;;25.50;22.50;;;;;;;;5045109;28;11599;-81
2022/01/23 00:53:00;;;;;;;;;18.50;18.50;;;;;;;;5054982;28;11592;-80
2022/01/23 00:55:30;;;;;;;;;39.25;32.50;;;;;;;;5045034;28;12432;-80
2022/01/23 00:57:57;;;;;;;;;39.50;33.00;;;;;;;;5059264;28;11594;-81
2022/01/23 01:00:24;;;;;;;;;35.25;32.25;;;;;;;;5058385;28;11476;-79
2022/01/23 01:02:52;;;;;;;;;43.50;39.00;;;;;;;;5058319;28;11607;-80
2022/01/23 01:05:20;;;;;;;;;34.00;34.00;;;;;;;;5055368;28;11573;-81
2022/01/23 01:07:49;;;;;;;;;40.00;34.25;;;;;;;;5048886;28;11589;-81
2022/01/23 01:10:22;;;;;;;;;61.75;48.25;;;;;;;;5059136;28;11561;-81
2022/01/23 01:12:55;;;;;;;;;36.50;35.25;;;;;;;;5058179;28;11570;-81
2022/01/23 01:31:57;;;;;;;;;42.75;40.00;;;;;;;;5048590;28;12221;-79
2022/01/23 01:34:32;;;;;;;;;29.25;24.00;;;;;;;;5055612;28;11601;-80
2022/01/23 01:37:01;;;;;;;;;46.50;42.50;;;;;;;;5053641;28;11565;-80
2022/01/23 01:39:29;;;;;;;;;42.25;33.50;;;;;;;;5048111;28;11625;-80
2022/01/23 01:41:57;;;;;;;;;47.50;40.00;;;;;;;;5046016;28;11575;-80
2022/01/23 01:44:26;;;;;;;;;40.00;37.50;;;;;;;;5048569;28;11696;-80
2022/01/23 01:46:54;;;;;;;;;32.75;32.75;;;;;;;;5050370;28;11592;-80
2022/01/23 01:49:27;;;;;;;;;23.75;20.50;;;;;;;;5056425;28;11581;-80
2022/01/23 01:51:56;;;;;;;;;27.25;27.00;;;;;;;;5061568;28;11537;-80
2022/01/23 01:54:26;;;;;;;;;25.00;22.50;;;;;;;;5052270;28;11715;-80
2022/01/23 01:57:04;;;;;;;;;24.50;23.00;;;;;;;;5048941;28;11685;-80
2022/01/23 01:59:48;;;;;;;;;21.50;20.00;;;;;;;;5059248;28;11684;-80
2022/01/23 02:10:33;;;;;;;;;35.75;31.25;;;;;;;;5045575;28;11567;-80
2022/01/23 02:13:24;;;;;;;;;21.50;17.75;;;;;;;;5057159;28;11575;-80
2022/01/23 02:52:10;;;;;;;;;24.00;21.75;;;;;;;;5060701;28;12258;-80
2022/01/23 02:54:57;;;;;;;;;19.75;18.50;;;;;;;;5057877;28;11575;-80
2022/01/23 02:57:41;;;;;;;;;22.50;17.00;;;;;;;;5047272;28;11612;-81
2022/01/23 03:00:17;;;;;;;;;19.50;14.75;;;;;;;;5051489;28;11548;-81
2022/01/23 03:02:47;;;;;;;;;23.75;20.00;;;;;;;;5046790;28;11571;-81
2022/01/23 03:05:24;;;;;;;;;17.25;13.00;;;;;;;;5047598;28;11694;-81
2022/01/23 03:08:01;;;;;;;;;18.00;15.75;;;;;;;;5057255;28;11588;-81
2022/01/23 03:10:34;;;;;;;;;15.50;14.25;;;;;;;;5052910;28;11585;-80
2022/01/23 03:24:39;;;;;;;;;45.25;36.75;;;;;;;;5109906;28;11534;-79
2022/01/23 03:27:27;;;;;;;;;37.00;34.00;;;;;;;;5113654;27;12442;-79
2022/01/23 03:30:01;;;;;;;;;26.75;17.25;;;;;;;;5102090;28;11559;-78
2022/01/23 03:32:35;;;;;;;;;12.75;9.00;;;;;;;;5088927;28;11472;-78
2022/01/23 03:35:06;;;;;;;;;20.50;18.25;;;;;;;;5099606;28;11447;-78
2022/01/23 03:37:33;;;;;;;;;32.75;23.50;;;;;;;;5093967;28;11528;-78
2022/01/23 03:40:00;;;;;;;;;15.75;15.75;;;;;;;;5072591;28;11505;-78
2022/01/23 03:42:28;;;;;;;;;11.50;9.75;;;;;;;;5090461;28;11449;-79
2022/01/23 03:45:15;;;;;;;;;40.75;39.50;;;;;;;;5100387;28;11520;-78
2022/01/23 03:47:53;;;;;;;;;31.00;30.50;;;;;;;;5079138;28;11517;-79
2022/01/23 03:50:21;;;;;;;;;19.75;17.50;;;;;;;;5083472;28;11489;-79
2022/01/23 03:52:48;;;;;;;;;24.50;18.00;;;;;;;;5088846;28;11616;-78
2022/01/23 03:55:15;;;;;;;;;11.00;11.00;;;;;;;;5095227;28;11474;-79
2022/01/23 03:57:43;;;;;;;;;24.75;18.00;;;;;;;;5093165;28;11550;-79
2022/01/23 04:00:15;;;;;;;;;26.00;19.75;;;;;;;;5083903;28;11629;-78
2022/01/23 04:02:42;;;;;;;;;24.25;21.25;;;;;;;;5090509;28;11596;-79
2022/01/23 04:05:10;;;;;;;;;20.25;17.50;;;;;;;;5090646;28;11602;-80
2022/01/23 04:07:39;;;;;;;;;36.25;34.25;;;;;;;;5072207;28;11516;-79
2022/01/23 04:10:08;;;;;;;;;35.25;29.75;;;;;;;;5089545;28;11585;-80
2022/01/23 04:12:43;;;;;;;;;26.75;22.25;;;;;;;;5084220;28;11516;-80
2022/01/23 04:15:18;;;;;;;;;31.75;27.00;;;;;;;;5095934;28;11531;-80
2022/01/23 04:20:39;;;;;;;;;36.50;30.25;;;;;;;;5091651;28;11461;-80
2022/01/23 04:32:04;;;;;;;;;28.00;21.00;;;;;;;;5071252;28;11532;-80
2022/01/23 04:34:37;;;;;;;;;24.75;20.75;;;;;;;;5059146;28;11494;-80
2022/01/23 04:45:27;;;;;;;;;21.75;20.50;;;;;;;;5073896;28;11587;-80
2022/01/23 05:01:51;;;;;;;;;22.75;22.75;;;;;;;;5082072;28;11427;-79
2022/01/23 05:04:22;;;;;;;;;31.75;23.00;;;;;;;;5070838;28;11481;-78
2022/01/23 05:06:59;;;;;;;;;25.00;23.75;;;;;;;;5054274;28;11538;-78
2022/01/23 05:09:27;;;;;;;;;26.25;24.00;;;;;;;;5070967;28;11500;-78
2022/01/23 05:11:58;;;;;;;;;25.50;21.00;;;;;;;;5052382;28;11577;-77
2022/01/23 05:14:41;;;;;;;;;25.25;19.75;;;;;;;;5069556;28;11480;-80
2022/01/23 05:17:11;;;;;;;;;26.25;23.75;;;;;;;;5053278;28;11514;-78
2022/01/23 05:19:39;;;;;;;;;29.75;28.00;;;;;;;;5075845;28;11633;-78
2022/01/23 05:24:53;;;;;;;;;25.25;21.00;;;;;;;;5063254;28;11452;-81
2022/01/23 05:27:23;;;;;;;;;29.50;24.00;;;;;;;;5083414;28;11469;-78
2022/01/23 05:29:51;;;;;;;;;20.00;16.00;;;;;;;;5055165;28;11519;-78
2022/01/23 05:32:20;;;;;;;;;20.00;17.25;;;;;;;;5071909;28;11463;-78
2022/01/23 05:34:48;;;;;;;;;17.75;14.25;;;;;;;;5073671;28;11506;-78
2022/01/23 05:37:16;;;;;;;;;20.25;14.25;;;;;;;;5073778;28;11579;-78
2022/01/23 05:39:44;;;;;;;;;19.50;16.25;;;;;;;;5077045;28;11468;-79
2022/01/23 05:42:11;;;;;;;;;19.00;19.00;;;;;;;;5073211;28;11463;-79
2022/01/23 05:44:42;;;;;;;;;17.75;10.75;;;;;;;;5078527;28;11514;-78
2022/01/23 05:47:11;;;;;;;;;17.00;16.00;;;;;;;;5059700;28;11488;-78
2022/01/23 05:49:38;;;;;;;;;15.75;13.75;;;;;;;;5063332;28;11472;-78
2022/01/23 05:52:07;;;;;;;;;13.25;13.25;;;;;;;;5077858;28;11495;-79
2022/01/23 05:54:35;;;;;;;;;19.00;16.00;;;;;;;;5069686;28;11501;-78
2022/01/23 05:57:02;;;;;;;;;16.75;16.75;;;;;;;;5071725;28;11539;-78
2022/01/23 05:59:29;;;;;;;;;13.50;12.00;;;;;;;;5077679;28;11623;-78
2022/01/23 06:01:59;;;;;;;;;15.25;10.25;;;;;;;;5074148;28;11539;-79
2022/01/23 06:04:27;;;;;;;;;17.50;17.50;;;;;;;;5079986;28;11478;-78
2022/01/23 06:06:56;;;;;;;;;15.50;15.00;;;;;;;;5068852;28;11631;-78
2022/01/23 06:09:23;;;;;;;;;16.50;15.75;;;;;;;;5033287;28;11499;-79
2022/01/23 06:11:51;;;;;;;;;13.25;11.00;;;;;;;;5061634;28;11470;-81
2022/01/23 06:14:19;;;;;;;;;16.50;15.75;;;;;;;;5046891;28;11579;-78
2022/01/23 06:16:46;;;;;;;;;18.00;17.50;;;;;;;;5069474;28;11519;-79
2022/01/23 06:19:15;;;;;;;;;13.75;12.75;;;;;;;;5071009;28;11536;-79
2022/01/23 06:21:43;;;;;;;;;20.00;16.25;;;;;;;;5073994;28;11509;-79
2022/01/23 06:24:15;;;;;;;;;15.25;12.00;;;;;;;;5073992;28;11459;-77
2022/01/23 06:26:45;;;;;;;;;18.50;14.00;;;;;;;;5077509;28;11472;-84
2022/01/23 06:29:14;;;;;;;;;19.25;17.50;;;;;;;;5078781;28;11456;-78
2022/01/23 06:31:42;;;;;;;;;14.25;14.25;;;;;;;;5064090;28;11582;-78
2022/01/23 06:34:10;;;;;;;;;22.25;18.50;;;;;;;;5079364;28;11490;-77
2022/01/23 06:36:41;;;;;;;;;23.25;19.25;;;;;;;;5051717;28;11477;-77
2022/01/23 06:39:10;;;;;;;;;13.00;13.00;;;;;;;;5052027;28;11470;-77
2022/01/23 06:41:38;;;;;;;;;19.25;19.25;;;;;;;;5074647;28;11496;-78
2022/01/23 06:44:05;;;;;;;;;22.50;22.50;;;;;;;;5077680;28;11506;-78
2022/01/23 06:46:33;;;;;;;;;23.75;19.75;;;;;;;;5074114;28;11517;-79
2022/01/23 06:49:01;;;;;;;;;23.00;21.50;;;;;;;;5074303;28;11630;-81
2022/01/23 06:51:29;;;;;;;;;21.50;18.75;;;;;;;;5084070;28;11478;-78
2022/01/23 06:53:58;;;;;;;;;23.25;21.50;;;;;;;;5081944;28;11501;-79
2022/01/23 06:56:25;;;;;;;;;25.00;23.00;;;;;;;;5081437;28;11594;-79
2022/01/23 06:58:53;;;;;;;;;20.75;16.00;;;;;;;;5083401;28;11622;-79
2022/01/23 07:01:21;;;;;;;;;28.75;22.50;;;;;;;;5074907;28;12216;-81
2022/01/23 07:03:49;;;;;;;;;25.25;20.75;;;;;;;;5074896;28;11584;-85
2022/01/23 07:06:17;;;;;;;;;25.25;21.75;;;;;;;;5059693;28;11528;-85
2022/01/23 07:08:44;;;;;;;;;24.50;22.50;;;;;;;;5076577;28;11481;-85
2022/01/23 07:11:13;;;;;;;;;21.75;16.00;;;;;;;;5050366;28;11491;-86
2022/01/23 07:13:40;;;;;;;;;29.50;21.75;;;;;;;;5062125;28;11494;-82
2022/01/23 07:16:07;;;;;;;;;27.75;22.50;;;;;;;;5072895;28;12108;-78
2022/01/23 07:18:35;;;;;;;;;31.75;24.25;;;;;;;;5069650;28;12242;-81
2022/01/23 07:21:02;;;;;;;;;26.75;22.00;;;;;;;;5078516;28;11596;-82
2022/01/23 07:23:30;;;;;;;;;17.75;17.75;;;;;;;;5082088;28;11512;-84
2022/01/23 07:25:58;;;;;;;;;16.75;16.75;;;;;;;;5072974;28;11482;-83
2022/01/23 07:28:37;;;;;;;;;33.75;28.00;;;;;;;;5057962;28;11493;-84
2022/01/23 07:31:06;;;;;;;;;19.50;13.75;;;;;;;;5075368;28;11517;-86
2022/01/23 07:33:36;;;;;;;;;35.75;34.50;;;;;;;;5063093;28;11575;-86
2022/01/23 07:36:03;;;;;;;;;25.50;19.75;;;;;;;;5078591;28;11498;-85
2022/01/23 07:38:31;;;;;;;;;23.25;21.25;;;;;;;;5073107;28;11642;-85
2022/01/23 07:40:58;;;;;;;;;46.00;39.75;;;;;;;;5065105;28;11470;-86
2022/01/23 07:43:27;;;;;;;;;20.25;16.00;;;;;;;;5076173;28;11504;-84
2022/01/23 07:45:54;;;;;;;;;38.00;35.00;;;;;;;;5071552;28;11573;-84
2022/01/23 07:48:22;;;;;;;;;37.00;29.25;;;;;;;;5074245;28;11532;-80
2022/01/23 07:50:49;;;;;;;;;34.00;25.50;;;;;;;;5073361;28;11521;-82
2022/01/23 07:53:16;;;;;;;;;31.25;28.25;;;;;;;;5071406;28;11591;-82
2022/01/23 07:55:44;;;;;;;;;25.25;21.00;;;;;;;;5079498;28;11513;-83
2022/01/23 07:58:15;;;;;;;;;26.75;26.75;;;;;;;;5077453;28;11491;-85
2022/01/23 08:00:45;;;;;;;;;35.00;32.25;;;;;;;;5049153;28;11448;-82
2022/01/23 08:03:12;;;;;;;;;25.25;24.75;;;;;;;;5068508;28;11636;-82
2022/01/23 08:05:40;;;;;;;;;57.25;45.25;;;;;;;;5079240;28;11515;-82
2022/01/23 08:08:08;;;;;;;;;35.25;33.75;;;;;;;;5055604;28;11627;-75
2022/01/23 08:10:35;;;;;;;;;41.75;36.25;;;;;;;;5072298;28;11542;-76
2022/01/23 08:13:03;;;;;;;;;60.50;46.00;;;;;;;;5077533;28;11560;-76
2022/01/23 08:15:30;;;;;;;;;47.00;43.25;;;;;;;;5072414;28;11581;-75
2022/01/23 08:18:01;;;;;;;;;57.75;46.50;;;;;;;;5068543;28;11483;-76
2022/01/23 08:20:29;;;;;;;;;37.50;30.50;;;;;;;;5080075;28;11537;-76
2022/01/23 08:22:58;;;;;;;;;49.75;38.00;;;;;;;;5075530;28;11609;-76
2022/01/23 08:25:26;;;;;;;;;35.00;30.25;;;;;;;;5070822;28;11534;-76
2022/01/23 08:27:53;;;;;;;;;44.75;35.50;;;;;;;;5074596;28;11647;-76
2022/01/23 08:30:21;;;;;;;;;32.50;25.50;;;;;;;;5073794;28;12114;-75
2022/01/23 08:32:48;;;;;;;;;42.75;39.50;;;;;;;;5075309;28;11508;-79
2022/01/23 08:35:17;;;;;;;;;38.25;35.00;;;;;;;;5071291;28;11500;-73
2022/01/23 08:37:45;;;;;;;;;33.75;33.75;;;;;;;;5067022;28;11535;-76
2022/01/23 08:40:19;;;;;;;;;35.50;30.50;;;;;;;;5071861;28;11517;-78
2022/01/23 08:42:47;;;;;;;;;61.75;48.50;;;;;;;;5074339;28;12271;-75
2022/01/23 08:45:14;;;;;;;;;52.00;34.00;;;;;;;;5039599;28;11474;-79
2022/01/23 08:47:42;;;;;;;;;28.75;25.50;;;;;;;;5072262;28;11511;-77
2022/01/23 08:50:10;;;;;;;;;54.00;42.25;;;;;;;;5072931;28;11513;-78
2022/01/23 08:52:39;;;;;;;;;55.25;45.00;;;;;;;;5070935;28;11522;-81
2022/01/23 08:55:07;;;;;;;;;51.25;44.75;;;;;;;;5074011;28;11552;-74
2022/01/23 08:57:34;;;;;;;;;38.75;38.75;;;;;;;;5068553;28;11510;-72
2022/01/23 09:00:02;;;;;;;;;40.25;36.00;;;;;;;;5070945;28;11534;-75
2022/01/23 09:02:29;;;;;;;;;39.50;32.00;;;;;;;;5071333;28;12368;-73
2022/01/23 09:04:59;;;;;;;;;38.50;35.50;;;;;;;;5075322;28;11599;-73
2022/01/23 09:07:26;;;;;;;;;76.50;59.00;;;;;;;;5074035;28;11570;-74
2022/01/23 09:10:01;;;;;;;;;54.50;47.00;;;;;;;;5076693;28;11621;-75
2022/01/23 09:12:42;;;;;;;;;46.00;36.75;;;;;;;;5070489;28;11591;-75
2022/01/23 09:15:11;;;;;;;;;36.75;33.50;;;;;;;;5074943;28;12349;-75
2022/01/23 09:17:38;;;;;;;;;37.75;34.75;;;;;;;;5071061;28;11576;-74
2022/01/23 09:20:06;;;;;;;;;46.00;33.50;;;;;;;;5074493;28;11565;-73
2022/01/23 09:22:34;;;;;;;;;35.25;32.25;;;;;;;;5072357;28;11563;-72
2022/01/23 09:25:03;;;;;;;;;41.50;35.25;;;;;;;;5072586;28;11543;-73
2022/01/23 09:27:30;;;;;;;;;51.00;45.25;;;;;;;;5069866;28;11572;-73
2022/01/23 09:30:05;;;;;;;;;25.75;23.75;;;;;;;;5065829;28;11600;-74
2022/01/23 09:32:33;;;;;;;;;60.00;49.00;;;;;;;;5070292;28;11560;-73
2022/01/23 09:35:02;;;;;;;;;35.00;34.50;;;;;;;;5070277;28;11604;-74
2022/01/23 09:37:31;;;;;;;;;80.33;64.33;;;;;;;;5073595;28;11543;-73
2022/01/23 09:39:58;;;;;;;;;45.75;40.00;;;;;;;;5077414;28;8861;-74
2022/01/23 09:42:29;;;;;;;;;42.75;40.00;;;;;;;;5073240;28;12450;-75
2022/01/23 09:45:00;;;;;;;;;53.00;45.50;;;;;;;;5068335;28;11551;-72
2022/01/23 09:47:29;;;;;;;;;59.00;47.00;;;;;;;;5073663;28;11663;-76
2022/01/23 09:49:57;;;;;;;;;38.00;36.25;;;;;;;;5069883;28;11560;-74
2022/01/23 09:52:25;;;;;;;;;37.00;30.25;;;;;;;;5069039;28;11581;-74
2022/01/23 09:54:59;;;;;;;;;31.75;25.00;;;;;;;;5073535;28;11542;-74
2022/01/23 09:57:31;;;;;;;;;34.00;31.00;;;;;;;;5072286;28;12288;-75
2022/01/23 09:59:59;;;;;;;;;32.50;31.25;;;;;;;;5070643;28;11581;-73
2022/01/23 10:02:28;;;;;;;;;38.25;32.75;;;;;;;;5074907;28;12440;-73
2022/01/23 10:04:56;;;;;;;;;39.25;32.25;;;;;;;;5071692;28;11628;-73
2022/01/23 10:07:23;;;;;;;;;23.50;21.75;;;;;;;;5073179;28;11555;-73
2022/01/23 10:09:56;;;;;;;;;24.75;20.75;;;;;;;;5069680;28;11540;-71
2022/01/23 10:12:26;;;;;;;;;27.50;25.25;;;;;;;;5068614;28;11594;-73
2022/01/23 10:14:55;;;;;;;;;32.00;23.25;;;;;;;;5073373;28;11586;-74
2022/01/23 10:17:23;;;;;;;;;29.25;29.25;;;;;;;;5069280;28;11582;-73
2022/01/23 10:19:50;;;;;;;;;50.25;41.75;;;;;;;;5069071;28;11569;-75
2022/01/23 10:22:18;;;;;;;;;49.00;45.00;;;;;;;;5078886;28;11575;-73
2022/01/23 10:24:45;;;;;;;;;41.25;33.00;;;;;;;;5082668;28;11668;-73
2022/01/23 10:27:13;;;;;;;;;43.25;36.75;;;;;;;;5083079;28;11563;-74
2022/01/23 10:29:45;;;;;;;;;31.00;27.00;;;;;;;;5078137;28;12426;-75
2022/01/23 10:32:29;;;;;;;;;24.75;24.75;;;;;;;;5074239;28;11491;-79
2022/01/23 10:34:59;;;;;;;;;29.50;27.75;;;;;;;;5073583;28;11598;-76
2022/01/23 10:37:32;;;;;;;;;33.75;32.25;;;;;;;;5068413;28;11548;-76
2022/01/23 10:40:00;;;;;;;;;50.00;41.00;;;;;;;;5070228;28;11574;-76
2022/01/23 10:42:52;;;;;;;;;125.33;112.33;;;;;;;;5067723;28;11628;-75
2022/01/23 10:48:41;;;;;;;;;54.25;43.00;;;;;;;;5073109;28;11544;-77
2022/01/23 10:51:21;;;;;;;;;41.50;37.50;;;;;;;;5065461;28;11589;-81
2022/01/23 10:54:15;;;;;;;;;48.50;42.25;;;;;;;;5070580;28;11585;-78
2022/01/23 10:56:59;;;;;;;;;36.00;35.75;;;;;;;;5074925;28;11567;-80
2022/01/23 10:59:28;;;;;;;;;59.25;46.25;;;;;;;;5070583;28;11630;-76
2022/01/23 11:02:01;;;;;;;;;70.75;53.25;;;;;;;;5077717;28;11607;-76
2022/01/23 11:04:30;;;;;;;;;78.67;63.00;;;;;;;;5070982;28;11577;-75
2022/01/23 11:07:01;;;;;;;;;41.50;39.75;;;;;;;;5067145;28;11630;-79
2022/01/23 11:09:36;;;;;;;;;64.25;52.50;;;;;;;;5072284;28;11601;-79
2022/01/23 11:12:14;;;;;;;;;38.50;33.00;;;;;;;;5075801;28;11559;-79
2022/01/23 11:17:27;;;;;;;;;39.75;38.00;;;;;;;;5069108;28;12334;-79
2022/01/23 11:19:58;;;;;;;;;27.00;27.00;;;;;;;;5070665;28;11572;-76
2022/01/23 11:22:28;;;;;;;;;36.50;28.00;;;;;;;;5067740;28;11553;-77
2022/01/23 11:24:59;;;;;;;;;50.75;43.75;;;;;;;;5069081;28;11647;-77
2022/01/23 11:27:33;;;;;;;;;43.00;40.75;;;;;;;;5071094;28;11573;-79
2022/01/23 11:30:07;;;;;;;;;58.25;50.75;;;;;;;;5066843;28;11595;-78
2022/01/23 11:32:37;;;;;;;;;28.75;26.00;;;;;;;;5069732;28;11508;-79
2022/01/23 11:35:11;;;;;;;;;35.25;28.75;;;;;;;;5073694;28;11634;-75
2022/01/23 11:37:46;;;;;;;;;33.00;33.00;;;;;;;;5068704;28;11570;-75
2022/01/23 11:40:31;;;;;;;;;38.75;34.75;;;;;;;;5070415;28;11538;-76
2022/01/23 11:54:07;;;;;;;;;39.50;37.50;;;;;;;;5050195;28;11521;-73
2022/01/23 11:56:46;;;;;;;;;56.25;40.50;;;;;;;;5075615;28;11560;-77
2022/01/23 11:59:23;;;;;;;;;20.50;19.75;;;;;;;;5072814;28;11578;-75
2022/01/23 12:02:37;;;;;;;;;25.50;23.25;;;;;;;;5067865;28;11548;-70
2022/01/23 12:05:33;;;;;;;;;33.00;26.75;;;;;;;;5083823;28;11552;-81
2022/01/23 12:08:31;;;;;;;;;33.50;25.50;;;;;;;;5056817;28;11649;-73
2022/01/23 12:17:40;;;;;;;;;58.75;45.50;;;;;;;;5082549;28;11578;-73
2022/01/23 12:20:08;;;;;;;;;83.67;65.33;;;;;;;;5071540;28;11583;-76
2022/01/23 12:22:42;;;;;;;;;75.00;59.75;;;;;;;;5069108;28;11597;-71
2022/01/23 12:25:32;;;;;;;;;74.50;57.00;;;;;;;;5078988;28;12232;-75
2022/01/23 12:28:20;;;;;;;;;64.75;52.00;;;;;;;;5077406;28;11603;-75
2022/01/23 12:30:49;;;;;;;;;65.00;52.25;;;;;;;;5068479;28;12915;-73
2022/01/23 12:33:30;;;;;;;;;46.75;43.00;;;;;;;;5073844;28;11562;-73
2022/01/23 12:36:03;;;;;;;;;111.00;93.00;;;;;;;;5077282;28;12470;-71
2022/01/23 12:38:34;;;;;;;;;50.75;46.75;;;;;;;;5072726;28;8852;-71
2022/01/23 12:41:23;;;;;;;;;53.75;44.00;;;;;;;;5070275;28;11542;-75
2022/01/23 12:43:52;;;;;;;;;35.25;32.25;;;;;;;;5068050;28;11615;-73
2022/01/23 12:46:37;;;;;;;;;49.00;43.50;;;;;;;;5073856;28;12400;-71
2022/01/23 12:49:28;;;;;;;;;45.00;43.00;;;;;;;;5073679;28;11583;-73
2022/01/23 12:52:14;;;;;;;;;46.00;41.25;;;;;;;;5076105;28;11581;-71
2022/01/23 12:54:55;;;;;;;;;61.25;49.00;;;;;;;;5073751;28;12342;-76
2022/01/23 12:57:36;;;;;;;;;40.00;38.75;;;;;;;;5073592;28;11529;-71
2022/01/23 13:00:09;;;;;;;;;56.50;44.25;;;;;;;;5070197;28;11587;-77
2022/01/23 13:02:43;;;;;;;;;48.00;41.00;;;;;;;;5076212;28;11539;-74
2022/01/23 13:05:11;;;;;;;;;47.25;40.25;;;;;;;;5072387;28;11682;-77
2022/01/23 13:07:46;;;;;;;;;43.25;37.00;;;;;;;;5071286;28;11642;-75
2022/01/23 13:10:29;;;;;;;;;47.25;41.50;;;;;;;;5064380;28;11653;-75
2022/01/23 13:13:12;;;;;;;;;31.50;26.50;;;;;;;;5071326;28;11631;-80
2022/01/23 13:18:38;;;;;;;;;84.67;64.33;;;;;;;;5070097;28;12315;-78
2022/01/23 13:29:59;;;;;;;;;66.75;54.25;;;;;;;;5061178;28;11592;-78
2022/01/23 13:32:36;;;;;;;;;78.00;62.25;;;;;;;;5080074;28;12317;-79
2022/01/23 13:35:08;;;;;;;;;69.50;56.50;;;;;;;;5083737;28;11639;-81
2022/01/23 13:37:42;;;;;;;;;25.25;25.25;;;;;;;;5064132;28;11582;-74
2022/01/23 13:40:13;;;;;;;;;83.00;67.33;;;;;;;;5078215;28;11753;-79
2022/01/23 13:48:02;;;;;;;;;87.67;69.67;;;;;;;;5073288;28;11622;-75
2022/01/23 13:51:37;;;;;;;;;70.25;54.75;;;;;;;;5044956;28;11630;-79
2022/01/23 13:59:41;;;;;;;;;39.50;35.00;;;;;;;;5065177;28;11555;-75
2022/01/23 14:02:17;;;;;;;;;65.50;48.75;;;;;;;;5073093;28;11709;-77
2022/01/23 14:04:47;;;;;;;;;56.25;44.25;;;;;;;;5075783;28;11562;-73
2022/01/23 14:07:19;;;;;;;;;46.50;42.00;;;;;;;;5072013;28;11682;-74
2022/01/23 14:09:46;;;;;;;;;46.75;43.00;;;;;;;;5066742;28;11569;-78
2022/01/23 14:12:17;;;;;;;;;43.00;41.25;;;;;;;;5071351;28;11600;-74
2022/01/23 14:14:57;;;;;;;;;51.25;41.25;;;;;;;;5077323;28;11583;-76
2022/01/23 14:17:31;;;;;;;;;61.00;48.75;;;;;;;;5063235;28;11578;-73
2022/01/23 14:20:01;;;;;;;;;61.00;50.25;;;;;;;;5067831;28;11551;-76
2022/01/23 14:22:31;;;;;;;;;65.00;50.50;;;;;;;;5073999;28;11562;-76
2022/01/23 14:25:09;;;;;;;;;66.50;55.00;;;;;;;;5071273;28;11627;-76
2022/01/23 14:27:37;;;;;;;;;57.25;48.00;;;;;;;;5070160;28;11627;-72
2022/01/23 14:30:07;;;;;;;;;49.25;43.75;;;;;;;;5062262;28;11583;-76
2022/01/23 14:32:44;;;;;;;;;59.50;47.25;;;;;;;;5070192;28;11641;-75
2022/01/23 14:35:13;;;;;;;;;57.00;48.75;;;;;;;;5066727;28;11574;-73
2022/01/23 14:37:43;;;;;;;;;66.25;48.00;;;;;;;;5068409;28;11543;-71
2022/01/23 14:40:28;;;;;;;;;51.50;43.25;;;;;;;;5076629;28;11552;-77
2022/01/23 14:43:07;;;;;;;;;56.00;48.25;;;;;;;;5072587;28;11633;-78
2022/01/23 14:45:37;;;;;;;;;46.25;40.00;;;;;;;;5067445;28;11667;-75
2022/01/23 14:48:07;;;;;;;;;43.50;39.50;;;;;;;;5070092;28;11549;-74
2022/01/23 14:50:37;;;;;;;;;39.50;35.00;;;;;;;;5072557;28;11542;-80
2022/01/23 14:53:08;;;;;;;;;31.25;30.00;;;;;;;;5069819;28;12258;-82
2022/01/23 14:55:36;;;;;;;;;28.75;23.75;;;;;;;;5069353;28;11576;-76
2022/01/23 14:58:04;;;;;;;;;79.25;60.00;;;;;;;;5070842;28;13031;-75
2022/01/23 15:00:32;;;;;;;;;57.75;46.75;;;;;;;;5068613;28;11544;-76
2022/01/23 15:03:02;;;;;;;;;71.75;57.50;;;;;;;;5066784;28;12387;-76
2022/01/23 15:05:33;;;;;;;;;81.67;63.33;;;;;;;;5071639;28;11695;-75
2022/01/23 15:08:00;;;;;;;;;63.25;45.25;;;;;;;;5068233;28;11556;-74
2022/01/23 15:10:29;;;;;;;;;74.25;58.75;;;;;;;;5069805;28;12375;-75
2022/01/23 15:12:56;;;;;;;;;60.25;47.25;;;;;;;;5066649;28;11616;-75
2022/01/23 15:15:24;;;;;;;;;48.75;42.75;;;;;;;;5063262;28;11608;-71
2022/01/23 15:17:51;;;;;;;;;42.75;40.50;;;;;;;;5067751;28;11719;-72
2022/01/23 15:20:18;;;;;;;;;47.75;43.50;;;;;;;;5068624;28;12417;-70
2022/01/23 15:22:48;;;;;;;;;43.75;41.25;;;;;;;;5064695;28;11629;-76
2022/01/23 15:25:18;;;;;;;;;35.25;34.75;;;;;;;;5069769;28;11684;-76
2022/01/23 15:27:46;;;;;;;;;51.75;39.50;;;;;;;;5064500;28;13090;-73
2022/01/23 15:30:16;;;;;;;;;36.75;34.50;;;;;;;;5068073;28;11557;-72
2022/01/23 15:32:44;;;;;;;;;48.25;40.25;;;;;;;;5062330;28;11612;-73
2022/01/23 15:35:12;;;;;;;;;64.50;50.50;;;;;;;;5073415;28;11577;-73
2022/01/23 15:37:40;;;;;;;;;66.50;52.75;;;;;;;;5071283;28;11567;-77
2022/01/23 15:40:11;;;;;;;;;49.50;42.50;;;;;;;;5072118;28;11627;-79
2022/01/23 15:42:39;;;;;;;;;53.00;43.25;;;;;;;;5069089;28;11560;-77
2022/01/23 15:45:07;;;;;;;;;68.50;52.75;;;;;;;;5069246;28;11683;-76
2022/01/23 15:47:35;;;;;;;;;50.50;43.75;;;;;;;;5063427;28;11619;-74
2022/01/23 15:50:02;;;;;;;;;35.00;28.75;;;;;;;;5062277;28;11608;-75
2022/01/23 15:52:30;;;;;;;;;59.75;51.75;;;;;;;;5068935;28;11699;-77
2022/01/23 15:54:57;;;;;;;;;41.50;35.75;;;;;;;;5062389;28;11555;-79
2022/01/23 15:57:27;;;;;;;;;69.25;57.50;;;;;;;;5066300;28;11536;-73
2022/01/23 15:59:54;;;;;;;;;47.25;41.75;;;;;;;;5068758;28;11645;-80
2022/01/23 16:02:24;;;;;;;;;44.50;39.75;;;;;;;;5073908;28;11531;-78
2022/01/23 16:04:51;;;;;;;;;26.25;23.75;;;;;;;;5062459;28;11736;-73
2022/01/23 16:07:18;;;;;;;;;54.00;44.00;;;;;;;;5068830;28;11573;-72
2022/01/23 16:09:50;;;;;;;;;51.75;41.50;;;;;;;;5071948;28;11698;-75
2022/01/23 16:12:18;;;;;;;;;46.50;40.00;;;;;;;;5070868;28;11586;-78
2022/01/23 16:14:46;;;;;;;;;40.00;38.75;;;;;;;;5080294;28;12339;-78
2022/01/23 16:17:14;;;;;;;;;45.75;36.50;;;;;;;;5068186;28;12361;-76
2022/01/23 16:19:41;;;;;;;;;47.00;42.75;;;;;;;;5072320;28;11541;-79
2022/01/23 16:22:08;;;;;;;;;57.00;42.50;;;;;;;;5071534;28;12386;-79
2022/01/23 16:24:36;;;;;;;;;73.25;58.00;;;;;;;;5067601;28;11600;-77
2022/01/23 16:27:03;;;;;;;;;50.25;43.25;;;;;;;;5066827;28;11601;-77
2022/01/23 16:29:31;;;;;;;;;23.75;20.75;;;;;;;;5071108;28;11573;-81
2022/01/23 16:32:00;;;;;;;;;41.00;39.00;;;;;;;;5075814;28;12375;-80
2022/01/23 16:34:28;;;;;;;;;40.75;36.50;;;;;;;;5068041;28;11556;-82
2022/01/23 16:36:56;;;;;;;;;12.75;11.75;;;;;;;;5070704;28;11588;-80
2022/01/23 16:39:24;;;;;;;;;34.00;33.25;;;;;;;;5071967;28;11604;-77
2022/01/23 16:41:52;;;;;;;;;35.75;30.75;;;;;;;;5076852;28;11588;-80
2022/01/23 16:44:23;;;;;;;;;37.00;33.00;;;;;;;;5074061;28;11530;-82
2022/01/23 16:46:50;;;;;;;;;38.75;35.00;;;;;;;;5072887;28;11599;-83
2022/01/23 16:49:20;;;;;;;;;46.00;38.50;;;;;;;;5072556;28;11585;-82
2022/01/23 16:51:47;;;;;;;;;34.00;30.75;;;;;;;;5072313;28;11087;-84
2022/01/23 16:54:17;;;;;;;;;47.75;42.00;;;;;;;;5075109;28;11546;-84
2022/01/23 16:56:44;;;;;;;;;30.50;28.75;;;;;;;;5080611;28;11556;-81
2022/01/23 16:59:13;;;;;;;;;28.00;25.75;;;;;;;;5075912;28;11568;-80
2022/01/23 17:01:46;;;;;;;;;33.50;22.25;;;;;;;;5072221;28;11665;-81
2022/01/23 17:04:14;;;;;;;;;21.75;18.50;;;;;;;;5072800;28;11547;-82
2022/01/23 17:06:45;;;;;;;;;25.25;20.50;;;;;;;;5070603;28;11551;-83
2022/01/23 17:09:13;;;;;;;;;47.50;32.00;;;;;;;;5071486;28;11606;-85
2022/01/23 17:11:41;;;;;;;;;58.00;48.75;;;;;;;;5074812;28;11567;-85
2022/01/23 17:14:08;;;;;;;;;55.75;45.75;;;;;;;;5074307;28;11552;-85
2022/01/23 17:16:36;;;;;;;;;60.50;46.50;;;;;;;;5075413;28;11688;-81
2022/01/23 17:19:03;;;;;;;;;61.25;50.00;;;;;;;;5070613;28;11551;-82
2022/01/23 17:21:31;;;;;;;;;47.25;43.25;;;;;;;;5072270;28;11682;-83
2022/01/23 17:23:59;;;;;;;;;61.25;50.75;;;;;;;;5074256;28;11580;-81
2022/01/23 17:26:28;;;;;;;;;54.25;47.00;;;;;;;;5072964;28;11595;-83
2022/01/23 17:28:59;;;;;;;;;63.50;51.75;;;;;;;;5070641;28;11651;-85